createdAt,value
2023-05-19T00:00:33.248Z,9.38
2023-05-19T00:03:03.398Z,9.36
2023-05-19T00:05:32.054Z,9.33
2023-05-19T00:08:01.165Z,9.30
2023-05-19T00:10:31.919Z,9.19
2023-05-19T00:13:00.893Z,9.21
2023-05-19T00:15:29.309Z,9.21
2023-05-19T00:17:57.460Z,9.13
2023-05-19T00:20:26.723Z,9.14
2023-05-19T00:22:54.899Z,9.07
2023-05-19T00:25:22.985Z,9.04
2023-05-19T00:27:50.929Z,8.92
2023-05-19T00:30:18.947Z,9.00
2023-05-19T00:32:46.948Z,8.98
2023-05-19T00:35:15.833Z,8.94
2023-05-19T00:37:47.346Z,8.91
2023-05-19T00:40:15.449Z,8.90
2023-05-19T00:42:43.579Z,8.90
2023-05-19T00:45:11.878Z,8.85
2023-05-19T00:47:40.535Z,8.82
2023-05-19T00:50:08.940Z,8.79
2023-05-19T00:52:36.868Z,8.78
2023-05-19T00:55:08.137Z,8.72
2023-05-19T00:57:36.354Z,8.69
2023-05-19T01:00:05.803Z,8.66
2023-05-19T01:02:34.004Z,8.60
2023-05-19T01:05:03.220Z,8.65
2023-05-19T01:07:31.227Z,8.63
2023-05-19T01:09:59.451Z,8.62
2023-05-19T01:12:28.932Z,8.57
2023-05-19T01:14:57.814Z,8.48
2023-05-19T01:17:35.393Z,8.45
2023-05-19T01:20:12.294Z,8.37
2023-05-19T01:23:00.827Z,8.44
2023-05-19T01:26:13.785Z,8.32
2023-05-19T01:29:03.947Z,8.37
2023-05-19T01:31:34.551Z,8.35
2023-05-19T01:34:04.725Z,8.27
2023-05-19T01:36:34.305Z,8.30
2023-05-19T01:39:03.366Z,8.35
2023-05-19T01:41:36.497Z,8.25
2023-05-19T01:44:04.523Z,8.36
2023-05-19T01:46:34.088Z,8.37
2023-05-19T01:49:03.067Z,8.41
2023-05-19T01:51:32.110Z,8.43
2023-05-19T01:54:00.254Z,8.43
2023-05-19T01:56:35.164Z,8.41
2023-05-19T01:59:17.775Z,8.37
2023-05-19T02:01:54.405Z,8.27
2023-05-19T02:04:30.480Z,8.34
2023-05-19T02:07:04.775Z,8.32
2023-05-19T02:09:40.737Z,8.00
2023-05-19T02:12:15.566Z,8.26
2023-05-19T02:14:49.472Z,8.28
2023-05-19T02:17:19.913Z,8.27
2023-05-19T02:19:48.614Z,8.19
2023-05-19T02:22:16.490Z,8.21
2023-05-19T02:24:45.148Z,8.19
2023-05-19T02:27:13.115Z,8.18
2023-05-19T02:29:41.425Z,8.15
2023-05-19T02:32:09.459Z,8.12
2023-05-19T02:34:38.804Z,8.11
2023-05-19T02:37:07.721Z,8.07
2023-05-19T02:39:35.994Z,8.11
2023-05-19T02:42:04.177Z,7.99
2023-05-19T02:44:33.056Z,8.10
2023-05-19T02:47:00.925Z,8.10
2023-05-19T02:49:31.536Z,7.95
2023-05-19T02:52:01.792Z,8.13
2023-05-19T02:54:29.868Z,8.13
2023-05-19T02:56:57.768Z,8.14
2023-05-19T02:59:26.371Z,7.34
2023-05-19T03:01:56.976Z,8.14
2023-05-19T03:04:24.883Z,8.13
2023-05-19T03:06:54.191Z,8.18
2023-05-19T03:09:23.551Z,8.24
2023-05-19T03:11:51.543Z,8.18
2023-05-19T03:14:24.281Z,8.26
2023-05-19T03:16:52.679Z,8.27
2023-05-19T03:19:20.775Z,8.25
2023-05-19T03:21:49.715Z,8.20
2023-05-19T03:24:18.190Z,8.25
2023-05-19T03:26:47.822Z,8.33
2023-05-19T03:29:15.704Z,8.34
2023-05-19T03:31:43.820Z,8.36
2023-05-19T03:34:11.692Z,8.38
2023-05-19T03:36:39.939Z,8.41
2023-05-19T03:39:08.275Z,8.44
2023-05-19T03:41:36.269Z,8.45
2023-05-19T03:44:05.938Z,8.50
2023-05-19T03:46:33.999Z,8.32
2023-05-19T03:49:01.884Z,8.51
2023-05-19T03:51:30.151Z,8.59
2023-05-19T03:53:58.287Z,8.63
2023-05-19T03:56:27.746Z,8.57
2023-05-19T03:58:55.968Z,8.68
2023-05-19T04:01:25.317Z,8.72
2023-05-19T04:03:53.185Z,8.59
2023-05-19T04:06:21.185Z,8.67
2023-05-19T04:08:49.205Z,8.83
2023-05-19T04:11:17.128Z,8.87
2023-05-19T04:13:45.352Z,8.87
2023-05-19T04:16:13.726Z,8.94
2023-05-19T04:18:45.555Z,8.98
2023-05-19T04:21:13.663Z,9.01
2023-05-19T04:23:41.716Z,8.72
2023-05-19T04:26:09.573Z,9.13
2023-05-19T04:28:40.131Z,9.17
2023-05-19T04:31:10.881Z,9.23
2023-05-19T04:33:39.017Z,9.20
2023-05-19T04:36:10.635Z,9.35
2023-05-19T04:38:40.412Z,9.40
2023-05-19T04:41:11.102Z,9.47
2023-05-19T04:43:41.683Z,9.56
2023-05-19T04:46:13.852Z,9.44
2023-05-19T04:48:42.813Z,9.66
2023-05-19T04:51:14.340Z,9.73
2023-05-19T04:53:46.376Z,9.81
2023-05-19T04:56:15.557Z,9.81
2023-05-19T04:58:44.885Z,9.95
2023-05-19T05:01:13.946Z,9.98
2023-05-19T05:03:42.424Z,10.11
2023-05-19T05:06:10.552Z,10.18
2023-05-19T05:08:41.517Z,10.25
2023-05-19T05:11:10.612Z,10.34
2023-05-19T05:13:39.003Z,10.42
2023-05-19T05:16:08.539Z,10.52
2023-05-19T05:18:44.347Z,10.45
2023-05-19T05:21:17.124Z,10.70
2023-05-19T05:23:47.034Z,10.72
2023-05-19T05:26:19.591Z,10.67
2023-05-19T05:28:47.731Z,10.97
2023-05-19T05:31:15.949Z,11.09
2023-05-19T05:33:44.672Z,11.18
2023-05-19T05:36:13.757Z,11.28
2023-05-19T05:38:41.843Z,11.37
2023-05-19T05:41:11.091Z,11.44
2023-05-19T05:43:38.986Z,11.51
2023-05-19T05:46:07.083Z,11.59
2023-05-19T05:48:35.923Z,11.68
2023-05-19T05:51:04.527Z,11.77
2023-05-19T05:53:38.102Z,11.86
2023-05-19T05:56:06.824Z,11.95
2023-05-19T05:58:37.757Z,12.04
2023-05-19T06:01:05.910Z,12.06
2023-05-19T06:03:35.215Z,11.97
2023-05-19T06:06:03.254Z,12.31
2023-05-19T06:08:31.287Z,12.33
2023-05-19T06:10:59.295Z,12.46
2023-05-19T06:13:27.488Z,12.55
2023-05-19T06:15:56.813Z,12.64
2023-05-19T06:18:24.839Z,12.60
2023-05-19T06:20:52.786Z,12.74
2023-05-19T06:23:20.851Z,12.82
2023-05-19T06:25:48.758Z,12.90
2023-05-19T06:28:17.012Z,13.01
2023-05-19T06:30:44.887Z,13.10
2023-05-19T06:33:14.155Z,13.20
2023-05-19T06:35:42.193Z,13.29
2023-05-19T06:38:10.090Z,13.38
2023-05-19T06:40:38.150Z,13.48
2023-05-19T06:43:06.117Z,12.87
2023-05-19T06:45:34.046Z,13.63
2023-05-19T06:48:02.184Z,13.74
2023-05-19T06:50:31.911Z,13.85
2023-05-19T06:53:00.013Z,13.97
2023-05-19T06:55:28.110Z,14.07
2023-05-19T06:57:56.378Z,14.14
2023-05-19T07:00:24.402Z,14.19
2023-05-19T07:02:52.593Z,14.29
2023-05-19T07:05:21.096Z,14.41
2023-05-19T07:07:50.539Z,14.54
2023-05-19T07:10:18.421Z,14.66
2023-05-19T07:12:46.414Z,14.74
2023-05-19T07:15:14.442Z,14.91
2023-05-19T07:17:42.397Z,15.06
2023-05-19T07:20:11.217Z,15.31
2023-05-19T07:22:39.951Z,15.55
2023-05-19T07:25:10.834Z,15.74
2023-05-19T07:27:38.689Z,16.17
2023-05-19T07:30:08.036Z,16.41
2023-05-19T07:32:35.953Z,16.73
2023-05-19T07:35:04.386Z,17.22
2023-05-19T07:37:32.474Z,17.57
2023-05-19T07:40:00.335Z,18.32
2023-05-19T07:42:29.600Z,18.44
2023-05-19T07:44:57.624Z,18.34
2023-05-19T07:47:25.895Z,18.33
2023-05-19T07:49:53.873Z,18.56
2023-05-19T07:52:21.970Z,18.36
2023-05-19T07:54:49.863Z,18.22
2023-05-19T07:57:19.043Z,18.52
2023-05-19T07:59:48.440Z,18.45
2023-05-19T08:02:16.332Z,18.49
2023-05-19T08:04:44.347Z,18.82
2023-05-19T08:07:12.544Z,19.13
2023-05-19T08:09:40.449Z,19.34
2023-05-19T08:12:08.345Z,19.70
2023-05-19T08:14:36.356Z,19.87
2023-05-19T08:17:05.723Z,19.99
2023-05-19T08:19:33.611Z,20.17
2023-05-19T08:22:02.227Z,20.49
2023-05-19T08:24:30.651Z,20.27
2023-05-19T08:26:59.182Z,20.16
2023-05-19T08:29:27.207Z,20.31
2023-05-19T08:31:55.323Z,20.44
2023-05-19T08:34:24.654Z,20.75
2023-05-19T08:36:53.562Z,20.85
2023-05-19T08:39:26.600Z,20.67
2023-05-19T08:41:54.671Z,21.00
2023-05-19T08:44:22.815Z,20.99
2023-05-19T08:46:50.978Z,20.93
2023-05-19T08:49:25.720Z,20.72
2023-05-19T08:52:01.638Z,20.55
2023-05-19T08:54:40.097Z,20.25
2023-05-19T08:57:10.070Z,20.08
2023-05-19T08:59:38.685Z,20.23
2023-05-19T09:02:07.733Z,20.64
2023-05-19T09:04:37.018Z,20.27
2023-05-19T09:07:07.087Z,19.77
2023-05-19T09:09:34.960Z,19.73
2023-05-19T09:12:05.456Z,19.97
2023-05-19T09:14:34.804Z,20.47
2023-05-19T09:17:03.446Z,20.54
2023-05-19T09:19:31.872Z,20.52
2023-05-19T09:22:01.466Z,20.76
2023-05-19T09:24:31.094Z,21.21
2023-05-19T09:27:00.346Z,20.79
2023-05-19T09:29:28.670Z,21.15
2023-05-19T09:32:00.888Z,21.10
2023-05-19T09:34:29.070Z,21.54
2023-05-19T09:36:58.116Z,21.91
2023-05-19T09:39:26.322Z,21.41
2023-05-19T09:41:58.617Z,20.56
2023-05-19T09:44:29.825Z,21.11
2023-05-19T09:46:58.817Z,21.39
2023-05-19T09:49:29.619Z,21.55
2023-05-19T09:51:58.686Z,21.53
2023-05-19T09:54:29.761Z,21.31
2023-05-19T09:57:03.686Z,21.58
2023-05-19T09:59:33.770Z,21.38
2023-05-19T10:02:03.056Z,21.92
2023-05-19T10:04:32.350Z,21.85
2023-05-19T10:07:00.799Z,22.13
2023-05-19T10:09:30.597Z,22.15
2023-05-19T10:11:59.802Z,23.36
2023-05-19T10:14:30.643Z,22.94
2023-05-19T10:17:00.549Z,22.51
2023-05-19T10:19:30.045Z,22.47
2023-05-19T10:21:58.145Z,22.70
2023-05-19T10:24:26.594Z,22.72
2023-05-19T10:26:59.798Z,22.55
2023-05-19T10:29:33.046Z,22.05
2023-05-19T10:32:06.124Z,22.12
2023-05-19T10:34:59.343Z,21.81
2023-05-19T10:37:36.847Z,22.23
2023-05-19T10:40:12.108Z,22.63
2023-05-19T10:42:51.413Z,23.05
2023-05-19T10:45:23.936Z,22.81
2023-05-19T10:47:52.523Z,22.40
2023-05-19T10:50:21.453Z,22.91
2023-05-19T10:52:55.716Z,22.49
2023-05-19T10:55:52.059Z,22.71
2023-05-19T10:58:40.401Z,22.89
2023-05-19T11:01:14.977Z,23.14
2023-05-19T11:03:48.124Z,22.84
2023-05-19T11:06:20.635Z,22.63
2023-05-19T11:08:53.354Z,23.09
2023-05-19T11:11:23.363Z,22.95
2023-05-19T11:13:52.807Z,22.25
2023-05-19T11:16:28.329Z,22.41
2023-05-19T11:18:57.071Z,23.37
2023-05-19T11:21:25.040Z,23.71
2023-05-19T11:23:54.007Z,22.66
2023-05-19T11:26:44.705Z,22.58
2023-05-19T11:29:13.702Z,23.10
2023-05-19T11:31:44.879Z,22.91
2023-05-19T11:34:14.010Z,23.45
2023-05-19T11:36:42.907Z,24.00
2023-05-19T11:39:12.524Z,23.31
2023-05-19T11:41:40.852Z,23.02
2023-05-19T11:44:11.889Z,23.10
2023-05-19T11:46:39.874Z,23.22
2023-05-19T11:49:10.415Z,23.54
2023-05-19T11:51:38.484Z,24.30
2023-05-19T11:54:06.554Z,23.92
2023-05-19T11:56:38.433Z,23.72
2023-05-19T11:59:06.313Z,23.41
2023-05-19T12:01:35.152Z,23.12
2023-05-19T12:04:10.777Z,23.41
2023-05-19T12:06:38.792Z,24.17
2023-05-19T12:09:07.178Z,24.88
2023-05-19T12:11:35.828Z,24.97
2023-05-19T12:14:03.741Z,25.11
2023-05-19T12:16:35.540Z,24.70
2023-05-19T12:19:06.854Z,24.10
2023-05-19T12:21:36.507Z,24.68
2023-05-19T12:24:06.033Z,25.04
2023-05-19T12:26:34.588Z,24.10
2023-05-19T12:29:02.629Z,24.22
2023-05-19T12:31:30.700Z,24.39
2023-05-19T12:33:59.648Z,24.70
2023-05-19T12:36:28.652Z,24.26
2023-05-19T12:38:58.154Z,24.94
2023-05-19T12:41:27.335Z,25.55
2023-05-19T12:43:56.155Z,25.72
2023-05-19T12:46:24.309Z,26.09
2023-05-19T12:48:52.275Z,25.77
2023-05-19T12:51:20.925Z,26.30
2023-05-19T12:53:51.436Z,26.43
2023-05-19T12:56:21.313Z,26.07
2023-05-19T12:58:54.368Z,26.14
2023-05-19T13:01:24.440Z,26.46
2023-05-19T13:03:52.599Z,25.94
2023-05-19T13:06:20.662Z,26.78
2023-05-19T13:08:48.701Z,27.30
2023-05-19T13:11:16.594Z,27.16
2023-05-19T13:13:48.769Z,26.97
2023-05-19T13:16:16.992Z,26.89
2023-05-19T13:18:45.064Z,26.15
2023-05-19T13:21:13.531Z,26.59
2023-05-19T13:23:41.426Z,27.12
2023-05-19T13:26:11.652Z,27.19
2023-05-19T13:28:39.522Z,27.83
2023-05-19T13:31:08.835Z,27.91
2023-05-19T13:33:36.893Z,28.22
2023-05-19T13:36:05.178Z,28.81
2023-05-19T13:38:33.060Z,28.86
2023-05-19T13:41:01.083Z,28.96
2023-05-19T13:43:28.950Z,29.16
2023-05-19T13:45:56.926Z,28.38
2023-05-19T13:48:26.726Z,28.73
2023-05-19T13:50:55.720Z,28.49
2023-05-19T13:53:23.971Z,27.99
2023-05-19T13:55:55.175Z,27.62
2023-05-19T13:58:23.323Z,27.55
2023-05-19T14:00:54.654Z,27.66
2023-05-19T14:03:22.754Z,27.66
2023-05-19T14:05:52.281Z,27.48
2023-05-19T14:08:20.215Z,27.33
2023-05-19T14:10:52.174Z,27.14
2023-05-19T14:13:32.602Z,27.09
2023-05-19T14:16:03.304Z,26.91
2023-05-19T14:18:32.519Z,26.52
2023-05-19T14:21:01.814Z,26.50
2023-05-19T14:23:30.439Z,26.39
2023-05-19T14:25:58.343Z,26.17
2023-05-19T14:28:26.621Z,25.74
2023-05-19T14:30:54.667Z,25.16
2023-05-19T14:33:22.872Z,25.15
2023-05-19T14:35:50.847Z,25.82
2023-05-19T14:38:20.152Z,26.21
2023-05-19T14:40:48.839Z,26.29
2023-05-19T14:43:17.914Z,26.02
2023-05-19T14:45:45.955Z,26.03
2023-05-19T14:48:13.926Z,25.77
2023-05-19T14:50:42.234Z,26.07
2023-05-19T14:53:10.106Z,26.19
2023-05-19T14:55:39.355Z,26.04
2023-05-19T14:58:26.753Z,25.92
2023-05-19T15:00:56.074Z,25.64
2023-05-19T15:03:24.363Z,25.72
2023-05-19T15:05:52.320Z,25.92
2023-05-19T15:08:20.248Z,26.15
2023-05-19T15:10:51.397Z,26.12
2023-05-19T15:13:21.503Z,25.78
2023-05-19T15:15:49.636Z,25.78
2023-05-19T15:18:18.791Z,25.59
2023-05-19T15:20:46.833Z,25.68
2023-05-19T15:23:14.966Z,25.50
2023-05-19T15:25:42.966Z,25.85
2023-05-19T15:28:12.627Z,25.85
2023-05-19T15:30:41.241Z,25.80
2023-05-19T15:33:09.760Z,25.46
2023-05-19T15:35:37.705Z,25.46
2023-05-19T15:38:06.423Z,25.01
2023-05-19T15:40:34.716Z,24.55
2023-05-19T15:43:02.864Z,24.55
2023-05-19T15:45:32.409Z,24.58
2023-05-19T15:48:00.385Z,24.50
2023-05-19T15:50:28.548Z,24.18
2023-05-19T15:52:56.574Z,24.23
2023-05-19T15:55:24.469Z,24.15
2023-05-19T15:57:52.396Z,24.20
2023-05-19T16:00:20.559Z,23.83
2023-05-19T16:02:50.096Z,23.57
2023-05-19T16:05:18.018Z,23.27
2023-05-19T16:07:46.211Z,22.65
2023-05-19T16:10:14.137Z,23.56
2023-05-19T16:12:42.018Z,23.59
2023-05-19T16:15:10.855Z,23.74
2023-05-19T16:17:38.765Z,23.53
2023-05-19T16:20:09.509Z,23.30
2023-05-19T16:22:37.661Z,23.41
2023-05-19T16:25:06.597Z,23.40
2023-05-19T16:27:34.467Z,23.39
2023-05-19T16:30:03.272Z,22.97
2023-05-19T16:32:31.268Z,22.46
2023-05-19T16:34:59.178Z,22.23
2023-05-19T16:37:28.579Z,22.22
2023-05-19T16:39:56.567Z,22.17
2023-05-19T16:42:24.503Z,21.86
2023-05-19T16:44:52.522Z,21.89
2023-05-19T16:47:20.451Z,21.55
2023-05-19T16:49:48.321Z,21.77
2023-05-19T16:52:16.328Z,21.96
2023-05-19T16:54:45.875Z,21.64
2023-05-19T16:57:14.872Z,21.30
2023-05-19T16:59:43.048Z,21.03
2023-05-19T17:02:11.051Z,20.62
2023-05-19T17:04:39.017Z,20.02
2023-05-19T17:07:07.678Z,19.55
2023-05-19T17:09:35.907Z,18.94
2023-05-19T17:12:07.899Z,18.53
2023-05-19T17:14:39.544Z,18.16
2023-05-19T17:17:07.534Z,17.79
2023-05-19T17:19:35.854Z,17.60
2023-05-19T17:22:03.883Z,17.39
2023-05-19T17:24:33.359Z,17.18
2023-05-19T17:27:01.985Z,16.95
2023-05-19T17:29:31.356Z,16.73
2023-05-19T17:31:59.303Z,16.55
2023-05-19T17:34:28.215Z,16.33
2023-05-19T17:36:56.377Z,16.16
2023-05-19T17:39:24.489Z,16.08
2023-05-19T17:41:52.434Z,16.00
2023-05-19T17:44:20.415Z,15.87
2023-05-19T17:46:49.837Z,15.78
2023-05-19T17:49:17.796Z,15.76
2023-05-19T17:51:46.146Z,15.64
2023-05-19T17:54:14.634Z,15.52
2023-05-19T17:56:43.657Z,15.41
2023-05-19T17:59:12.322Z,15.30
2023-05-19T18:01:40.976Z,15.20
2023-05-19T18:04:13.125Z,15.12
2023-05-19T18:06:46.050Z,14.99
2023-05-19T18:09:15.210Z,14.86
2023-05-19T18:11:43.182Z,14.76
2023-05-19T18:14:11.369Z,14.65
2023-05-19T18:16:39.395Z,14.50
2023-05-19T18:19:07.472Z,14.54
2023-05-19T18:21:37.321Z,14.49
2023-05-19T18:24:05.579Z,14.39
2023-05-19T18:26:45.957Z,14.33
2023-05-19T18:29:17.917Z,14.24
2023-05-19T18:31:45.849Z,14.24
2023-05-19T18:34:14.071Z,13.97
2023-05-19T18:36:43.598Z,14.13
2023-05-19T18:39:11.614Z,13.90
2023-05-19T19:08:07.890Z,13.69
2023-05-19T19:10:39.156Z,13.48
2023-05-19T19:13:07.404Z,13.48
2023-05-19T19:15:35.853Z,13.36
2023-05-19T19:18:04.554Z,13.19
2023-05-19T19:20:34.398Z,13.16
2023-05-19T19:23:06.306Z,13.05
2023-05-19T19:25:35.829Z,12.97
2023-05-19T19:28:03.844Z,12.93
2023-05-19T19:30:32.258Z,12.79
2023-05-19T19:33:00.665Z,12.79
2023-05-19T19:35:28.717Z,12.60
2023-05-19T19:37:56.917Z,12.63
2023-05-19T19:40:25.005Z,12.57
2023-05-19T19:42:54.392Z,12.40
2023-05-19T19:45:22.336Z,12.45
2023-05-19T19:47:51.720Z,12.41
2023-05-19T19:50:19.897Z,12.39
2023-05-19T19:52:47.873Z,12.26
2023-05-19T19:55:16.060Z,12.34
2023-05-19T19:57:45.684Z,12.33
2023-05-19T20:00:16.767Z,12.11
2023-05-19T20:03:02.990Z,12.15
2023-05-19T20:05:32.847Z,12.09
2023-05-19T20:08:01.184Z,12.07
2023-05-19T20:10:29.273Z,11.96
2023-05-19T20:12:58.948Z,11.82
2023-05-19T20:15:28.306Z,11.86
2023-05-19T20:17:56.341Z,11.89
2023-05-19T20:20:24.461Z,11.86
2023-05-19T20:22:52.602Z,11.82
2023-05-19T20:25:20.526Z,11.83
2023-05-19T20:27:48.765Z,11.79
2023-05-19T20:30:16.790Z,11.31
2023-05-19T20:32:47.054Z,11.67
2023-05-19T20:35:15.302Z,11.65
2023-05-19T20:37:43.365Z,11.56
2023-05-19T20:40:11.782Z,11.38
2023-05-19T20:42:41.122Z,11.55
2023-05-19T20:45:10.033Z,11.50
2023-05-19T20:47:38.143Z,11.39
2023-05-19T20:50:08.796Z,11.35
2023-05-19T20:52:36.886Z,11.29
2023-05-19T20:55:05.196Z,10.95
2023-05-19T20:57:33.624Z,11.14
2023-05-19T21:00:01.666Z,11.08
2023-05-19T21:02:29.624Z,11.05
2023-05-19T21:04:57.800Z,10.99
2023-05-19T21:07:27.462Z,10.95
2023-05-19T21:09:56.324Z,10.91
2023-05-19T21:12:25.440Z,10.85
2023-05-19T21:14:53.407Z,10.84
2023-05-19T21:17:21.495Z,10.78
2023-05-19T21:19:50.744Z,10.74
2023-05-19T21:22:19.074Z,10.69
2023-05-19T21:24:48.689Z,10.69
2023-05-19T21:27:16.760Z,10.67
2023-05-19T21:29:44.809Z,10.67
2023-05-19T21:32:12.797Z,10.65
2023-05-19T21:34:40.841Z,10.61
2023-05-19T21:37:08.872Z,10.54
2023-05-19T21:39:36.750Z,10.59
2023-05-19T21:42:07.469Z,10.60
2023-05-19T21:44:35.609Z,10.61
2023-05-19T21:47:03.544Z,10.05
2023-05-19T21:49:31.672Z,10.57
2023-05-19T21:51:59.885Z,10.49
2023-05-19T21:54:27.807Z,10.52
2023-05-19T21:56:55.917Z,10.47
2023-05-19T21:59:26.328Z,10.46
2023-05-19T22:01:54.368Z,10.43
2023-05-19T22:04:23.731Z,10.44
2023-05-19T22:06:51.794Z,10.44
2023-05-19T22:09:19.723Z,10.41
2023-05-19T22:11:47.726Z,10.41
2023-05-19T22:14:15.877Z,10.37
2023-05-19T22:16:47.572Z,10.28
2023-05-19T22:19:15.828Z,10.25
2023-05-19T22:21:44.008Z,10.23
2023-05-19T22:24:11.941Z,10.00
2023-05-19T22:26:42.881Z,10.20
2023-05-19T22:29:15.165Z,10.16
2023-05-19T22:31:43.136Z,10.01
2023-05-19T22:34:15.144Z,10.14
2023-05-19T22:36:44.308Z,10.10
2023-05-19T22:39:12.749Z,10.09
2023-05-19T22:41:41.297Z,10.02
2023-05-19T22:44:10.443Z,10.05
2023-05-19T22:46:38.525Z,10.04
2023-05-19T22:49:06.628Z,9.98
2023-05-19T22:51:36.067Z,9.99
2023-05-19T22:54:04.040Z,9.91
2023-05-19T22:56:32.180Z,9.97
2023-05-19T22:59:00.616Z,9.94
2023-05-19T23:01:28.572Z,9.89
2023-05-19T23:03:56.776Z,9.86
2023-05-19T23:06:24.952Z,9.83
2023-05-19T23:09:03.382Z,9.78
2023-05-19T23:11:31.317Z,9.72
2023-05-19T23:13:59.354Z,9.64
2023-05-19T23:16:27.500Z,9.60
2023-05-19T23:18:55.589Z,9.60
2023-05-19T23:21:23.637Z,9.58
2023-05-19T23:23:51.897Z,9.42
2023-05-19T23:26:21.469Z,9.55
2023-05-19T23:28:49.452Z,9.52
2023-05-19T23:31:17.525Z,9.50
2023-05-19T23:33:45.608Z,9.14
2023-05-19T23:36:13.616Z,9.42
2023-05-19T23:38:41.779Z,9.39
2023-05-19T23:41:09.685Z,9.38
2023-05-19T23:43:39.121Z,9.17
2023-05-19T23:46:07.746Z,9.00
2023-05-19T23:48:36.719Z,9.28
2023-05-19T23:51:04.821Z,9.32
2023-05-19T23:53:32.897Z,9.32
2023-05-19T23:56:00.860Z,9.33
2023-05-19T23:58:28.870Z,9.30
